KPRX

Cox Field Airport

Paris, Texas, USA
METAR KPRX 191056Z AUTO 00000KT 10SM CLR 23/21 A2996 RMK AO2 SLP149 T02330206
Observed Flight Rules
Sep-19 @ 10:56 UTC (7 minutes ago) Visual Flight Rules
Visibility Clouds
10 miles
  • Clear skies
Temperatures Readings
Current 23°C / 73°F
Dewpoint 21°C / 70°F
Humidity 89%
Altimeter 29.96" Hg
Pressure 1014.9 hPa
Elevation 167
METAR KPRX 191056Z AUTO 00000KT 10SM CLR 23/21 A2996 RMK AO2 SLP149 T02330206
Observed Flight Rules
Sep-19 @ 10:56 UTC
(7 minutes ago)
VFR
Clouds
  • Clear skies
Temperature Dewpoint
23°C / 73°F 21°C / 70°F
Humidity Altimeter Pressure
89% 29.96" Hg 1014.9 hPa